Time;durP1;ratioP1;P1;durP2;ratioP2;P2;SDS_P1;SDS_P2;PMS_P1;PMS_P2;Temp;Humidity;BMP_temperature;BMP_pressure;BME280_temperature;BME280_humidity;BME280_pressure;Samples;Min_cycle;Max_cycle;Signal;HPM_P1;HPM_P2
2021/07/05 00:04:04;;;;;;;0.65;0.60;;;;;;;15.91;90.25;95966.22;5159056;57;20129;-71
2021/07/05 00:09:06;;;;;;;0.63;0.52;;;;;;;15.71;90.88;95970.75;5158113;57;20831;-70
2021/07/05 00:14:09;;;;;;;0.60;0.60;;;;;;;15.64;90.87;95965.69;5158846;57;20125;-71
2021/07/05 00:19:12;;;;;;;0.40;0.40;;;;;;;15.77;90.36;95967.97;5158518;57;20133;-70
2021/07/05 00:24:15;;;;;;;0.60;0.60;;;;;;;15.78;89.78;95975.06;5159222;57;20120;-71
2021/07/05 00:29:18;;;;;;;0.85;0.60;;;;;;;15.65;90.17;95988.72;5157674;57;20134;-70
2021/07/05 00:34:20;;;;;;;2.22;0.55;;;;;;;15.78;89.00;95981.38;5158927;57;20116;-71
2021/07/05 00:39:23;;;;;;;1.48;0.57;;;;;;;15.90;88.18;95978.63;5158646;57;20125;-70
2021/07/05 00:44:25;;;;;;;0.50;0.50;;;;;;;15.75;88.51;95968.47;5159061;57;20323;-70
2021/07/05 00:49:28;;;;;;;0.50;0.50;;;;;;;15.74;88.43;95966.19;5158964;57;20142;-71
2021/07/05 00:54:37;;;;;;;0.40;0.40;;;;;;;15.67;88.39;95959.09;5159100;57;20169;-70
2021/07/05 00:59:39;;;;;;;0.50;0.50;;;;;;;15.56;88.06;95958.31;5158965;57;20111;-71
2021/07/05 01:04:42;;;;;;;2.10;0.50;;;;;;;15.30;89.51;95955.72;5159120;57;20637;-70
2021/07/05 01:09:45;;;;;;;0.55;0.55;;;;;;;15.09;90.42;95971.06;5155964;57;20731;-70
2021/07/05 01:14:47;;;;;;;3.70;0.80;;;;;;;15.01;90.43;95967.25;5156365;57;20143;-69
2021/07/05 01:19:51;;;;;;;0.80;0.63;;;;;;;15.05;90.04;95965.75;5156973;57;20152;-70
2021/07/05 01:24:53;;;;;;;1.67;0.50;;;;;;;15.11;89.62;95967.81;5156459;57;20112;-70
2021/07/05 01:29:56;;;;;;;0.55;0.55;;;;;;;15.10;89.72;95967.03;5157184;57;20129;-70
2021/07/05 01:34:58;;;;;;;5.38;0.77;;;;;;;15.09;89.37;95960.69;5155703;57;20130;-70
2021/07/05 01:40:01;;;;;;;0.70;0.70;;;;;;;14.85;90.32;95959.59;5156510;57;20116;-71
2021/07/05 01:45:04;;;;;;;0.60;0.60;;;;;;;14.82;90.57;95957.78;5156026;57;20140;-70
2021/07/05 01:50:07;;;;;;;2.50;0.60;;;;;;;15.07;89.21;95945.75;5156927;57;20679;-70
2021/07/05 01:55:10;;;;;;;0.70;0.70;;;;;;;14.96;90.22;95952.06;5156970;57;20594;-70
2021/07/05 02:00:16;;;;;;;0.60;0.60;;;;;;;14.96;90.55;95952.06;5157116;57;20710;-70
2021/07/05 02:05:19;;;;;;;1.85;0.80;;;;;;;15.17;89.87;95958.22;5148774;57;20819;-70
2021/07/05 02:10:28;;;;;;;0.93;0.70;;;;;;;15.14;90.30;95961.97;5158472;57;20143;-70
2021/07/05 02:15:31;;;;;;;0.70;0.70;;;;;;;15.14;90.66;95953.63;5158464;57;20621;-70
2021/07/05 02:20:34;;;;;;;0.85;0.85;;;;;;;15.17;89.87;95935.16;5158786;57;20757;-70
2021/07/05 02:25:37;;;;;;;0.82;0.82;;;;;;;15.15;90.13;95937.69;5158366;57;20129;-71
2021/07/05 02:30:42;;;;;;;0.90;0.90;;;;;;;15.10;90.46;95942.00;5158361;57;20612;-70
2021/07/05 02:35:45;;;;;;;0.90;0.90;;;;;;;15.18;90.80;95945.03;5158457;57;20116;-70
2021/07/05 02:40:50;;;;;;;0.80;0.80;;;;;;;15.19;90.96;95955.69;5149637;57;20129;-70
2021/07/05 02:45:55;;;;;;;0.95;0.95;;;;;;;15.31;90.96;95960.00;5158749;57;20108;-70
2021/07/05 02:51:05;;;;;;;1.58;0.98;;;;;;;15.41;90.38;95955.72;5161553;57;20151;-69
2021/07/05 02:56:07;;;;;;;0.80;0.80;;;;;;;15.43;90.23;95936.50;5161346;57;20139;-70
2021/07/05 03:01:10;;;;;;;3.50;1.23;;;;;;;15.41;90.74;95952.94;5161262;57;20130;-70
2021/07/05 03:06:13;;;;;;;2.58;0.80;;;;;;;15.44;90.35;95951.97;5161433;57;20129;-71
2021/07/05 03:11:15;;;;;;;0.90;0.90;;;;;;;15.57;89.83;95937.56;5161710;57;20199;-71
2021/07/05 03:16:18;;;;;;;2.20;1.00;;;;;;;15.55;89.81;95929.72;5160598;57;20598;-71
2021/07/05 03:21:20;;;;;;;0.77;0.77;;;;;;;15.51;89.72;95934.75;5161103;57;20230;-70
2021/07/05 03:26:23;;;;;;;0.65;0.65;;;;;;;15.29;90.17;95940.25;5160688;57;20658;-70
2021/07/05 03:31:25;;;;;;;0.88;0.88;;;;;;;15.21;90.27;95955.94;5160915;57;20143;-70
2021/07/05 03:36:27;;;;;;;1.65;0.80;;;;;;;15.13;90.44;95952.09;5159249;57;20169;-70
2021/07/05 03:41:30;;;;;;;1.10;1.00;;;;;;;15.03;90.53;95937.66;5166561;57;20134;-70
2021/07/05 03:46:33;;;;;;;0.85;0.85;;;;;;;14.97;90.80;95945.22;5167433;57;20183;-70
2021/07/05 03:51:35;;;;;;;0.77;0.77;;;;;;;14.91;91.14;95946.47;5152991;57;20167;-70
2021/07/05 03:56:38;;;;;;;0.90;0.90;;;;;;;14.92;91.04;95948.00;5146774;57;20669;-70
2021/07/05 04:01:40;;;;;;;1.38;1.27;;;;;;;14.93;91.27;95949.50;5154719;57;20253;-71
2021/07/05 04:06:43;;;;;;;0.85;0.85;;;;;;;14.91;91.36;95960.38;5145765;57;20121;-70
2021/07/05 04:11:45;;;;;;;1.02;1.02;;;;;;;15.06;90.79;95960.97;5151856;57;20129;-70
2021/07/05 04:16:47;;;;;;;0.90;0.90;;;;;;;15.07;90.74;95954.88;5160149;57;20142;-70
2021/07/05 04:21:50;;;;;;;1.40;1.00;;;;;;;15.16;90.53;95959.47;5160690;57;20215;-71
2021/07/05 04:26:52;;;;;;;5.63;1.10;;;;;;;15.26;90.31;95963.53;5159977;57;20129;-70
2021/07/05 04:31:55;;;;;;;1.05;0.98;;;;;;;15.39;90.07;95949.91;5160281;57;20143;-70
2021/07/05 04:37:17;;;;;;;1.98;0.88;;;;;;;15.65;88.97;95949.72;5159892;57;20134;-70
2021/07/05 04:42:20;;;;;;;1.67;1.10;;;;;;;15.72;89.12;95952.75;5160253;57;20598;-69
2021/07/05 04:47:22;;;;;;;0.90;0.90;;;;;;;15.96;88.54;95957.09;5159704;57;20125;-70
2021/07/05 04:52:25;;;;;;;0.80;0.80;;;;;;;16.16;88.17;95959.63;5160010;57;20125;-70
2021/07/05 04:57:29;;;;;;;0.80;0.80;;;;;;;16.39;87.53;95947.19;5159674;57;20143;-71
2021/07/05 05:02:31;;;;;;;0.88;0.88;;;;;;;16.61;86.92;95949.94;5159695;57;20125;-70
2021/07/05 05:07:34;;;;;;;1.15;1.10;;;;;;;16.81;86.01;95937.72;5159202;57;20125;-70
2021/07/05 05:12:37;;;;;;;0.73;0.73;;;;;;;17.04;85.57;95931.53;5159500;57;20138;-70
2021/07/05 05:17:40;;;;;;;0.80;0.80;;;;;;;17.31;84.21;95949.41;5159343;57;20159;-71
2021/07/05 05:22:43;;;;;;;0.98;0.98;;;;;;;17.43;84.05;95947.31;5159211;57;20143;-70
2021/07/05 05:27:47;;;;;;;0.98;0.98;;;;;;;17.76;82.42;95942.31;5159419;57;20238;-70
2021/07/05 05:32:51;;;;;;;2.35;0.98;;;;;;;18.09;79.48;95943.34;5159216;57;20741;-70
2021/07/05 05:37:55;;;;;;;1.33;1.00;;;;;;;18.13;80.07;95938.97;5159200;57;20143;-70
2021/07/05 05:42:58;;;;;;;1.00;1.00;;;;;;;18.19;76.42;95941.72;5159182;57;20692;-68
2021/07/05 05:48:00;;;;;;;0.85;0.85;;;;;;;18.05;77.28;95932.44;5158764;57;20129;-70
2021/07/05 05:53:03;;;;;;;0.90;0.90;;;;;;;18.01;79.03;95948.72;5158652;57;20550;-71
2021/07/05 05:58:05;;;;;;;1.55;1.05;;;;;;;18.24;76.69;95938.13;5158618;57;20111;-70
2021/07/05 06:03:08;;;;;;;1.00;1.00;;;;;;;18.57;77.72;95941.38;5158569;57;20129;-71
2021/07/05 06:08:10;;;;;;;1.10;1.00;;;;;;;18.96;73.53;95940.94;5158341;57;20691;-71
2021/07/05 06:13:13;;;;;;;0.80;0.80;;;;;;;19.26;71.34;95946.44;5158812;57;20213;-69
2021/07/05 06:18:15;;;;;;;1.00;1.00;;;;;;;19.37;71.53;95957.53;5158401;57;20138;-71
2021/07/05 06:23:25;;;;;;;0.90;0.90;;;;;;;19.32;73.50;95969.53;5160951;57;20671;-71
2021/07/05 06:28:29;;;;;;;0.90;0.90;;;;;;;19.51;71.91;95966.78;5161608;57;20235;-71
2021/07/05 06:33:32;;;;;;;0.80;0.80;;;;;;;19.70;69.54;95967.50;5161860;57;20608;-70
2021/07/05 06:38:34;;;;;;;0.90;0.90;;;;;;;19.56;70.71;95975.09;5161200;57;20134;-70
2021/07/05 06:43:37;;;;;;;0.95;0.80;;;;;;;19.85;69.92;95967.81;5161891;57;20112;-71
2021/07/05 06:48:42;;;;;;;0.70;0.70;;;;;;;19.91;70.98;95971.28;5161505;57;20142;-71
2021/07/05 06:53:45;;;;;;;1.42;0.95;;;;;;;19.90;69.35;95973.31;5161516;57;20139;-71
2021/07/05 06:58:47;;;;;;;2.45;0.90;;;;;;;19.99;69.97;95970.13;5160883;57;20133;-71
2021/07/05 07:03:49;;;;;;;0.88;0.88;;;;;;;20.09;69.32;95958.50;5160184;57;20125;-71
2021/07/05 07:08:52;;;;;;;1.67;0.80;;;;;;;20.57;69.47;95952.63;5160779;57;20134;-72
2021/07/05 07:13:54;;;;;;;1.15;0.73;;;;;;;20.63;65.61;95950.47;5161613;57;20125;-69
2021/07/05 07:24:19;;;;;;;0.95;0.95;;;;;;;20.82;65.10;95956.75;5161100;57;20603;-71
2021/07/05 07:29:21;;;;;;;0.80;0.80;;;;;;;21.35;62.24;95958.28;5160958;57;20239;-71
2021/07/05 07:34:24;;;;;;;1.10;0.68;;;;;;;21.89;61.97;95945.63;5160861;57;20116;-71
2021/07/05 07:39:33;;;;;;;0.80;0.80;;;;;;;21.90;57.71;95938.69;5160603;57;20121;-72
2021/07/05 07:44:35;;;;;;;2.20;1.10;;;;;;;22.99;58.51;95935.66;5161247;57;20290;-74
2021/07/05 07:49:38;;;;;;;0.70;0.70;;;;;;;24.00;56.67;95932.16;5160587;57;20121;-73
2021/07/05 07:54:40;;;;;;;0.90;0.90;;;;;;;23.91;52.15;95922.19;5161160;57;20137;-73
2021/07/05 07:59:46;;;;;;;0.70;0.70;;;;;;;24.41;54.05;95917.75;5151704;57;20116;-73
2021/07/05 08:04:49;;;;;;;0.80;0.80;;;;;;;23.81;53.04;95917.66;5160471;57;20120;-73
2021/07/05 08:09:53;;;;;;;0.70;0.70;;;;;;;24.04;51.94;95924.81;5160245;57;20151;-73
2021/07/05 08:14:56;;;;;;;0.70;0.70;;;;;;;24.39;54.02;95923.22;5159823;57;20665;-73
2021/07/05 08:19:58;;;;;;;2.10;0.90;;;;;;;24.26;53.52;95931.09;5146094;57;20240;-72
2021/07/05 08:25:06;;;;;;;1.38;0.90;;;;;;;25.72;49.68;95929.00;5147065;57;20599;-73
2021/07/05 08:30:08;;;;;;;0.90;0.63;;;;;;;26.09;48.21;95936.53;5138800;57;20920;-72
2021/07/05 08:35:11;;;;;;;1.17;0.80;;;;;;;25.24;53.61;95928.97;5142714;57;20137;-72
2021/07/05 08:40:14;;;;;;;2.20;0.90;;;;;;;25.72;46.93;95924.09;5147436;57;20716;-72
2021/07/05 08:45:17;;;;;;;0.65;0.65;;;;;;;25.81;49.61;95920.66;5147336;57;20583;-72
2021/07/05 08:50:22;;;;;;;1.17;0.85;;;;;;;25.32;51.06;95915.56;5140189;57;20241;-72
2021/07/05 08:55:27;;;;;;;0.93;0.80;;;;;;;28.20;45.25;95917.41;5145158;57;20121;-72
2021/07/05 09:00:30;;;;;;;1.58;1.00;;;;;;;29.52;39.26;95926.19;5131872;57;20126;-73
2021/07/05 09:05:32;;;;;;;0.95;0.80;;;;;;;28.19;40.04;95924.44;5140165;57;20958;-73
2021/07/05 09:10:39;;;;;;;0.90;0.80;;;;;;;26.69;47.23;95932.53;5157072;57;20130;-73
2021/07/05 09:15:53;;;;;;;1.05;0.70;;;;;;;25.59;47.45;95925.09;5149589;57;20134;-72
2021/07/05 09:21:10;;;;;;;0.85;0.85;;;;;;;25.19;49.36;95918.63;5143781;57;20121;-71
2021/07/05 09:26:21;;;;;;;1.35;1.25;;;;;;;24.83;50.02;95921.69;5147351;57;20126;-71
2021/07/05 09:31:57;;;;;;;0.90;0.90;;;;;;;25.29;51.37;95922.34;5147618;57;20117;-72
2021/07/05 09:37:20;;;;;;;0.80;0.80;;;;;;;25.23;49.65;95927.47;5137825;57;20134;-72
2021/07/05 09:42:23;;;;;;;3.25;0.90;;;;;;;25.42;49.20;95929.88;5141727;57;20147;-72
2021/07/05 09:47:26;;;;;;;1.42;1.00;;;;;;;25.90;48.26;95916.44;5142836;57;20131;-72
2021/07/05 09:52:29;;;;;;;0.80;0.80;;;;;;;25.74;45.08;95915.03;5138957;57;20157;-72
2021/07/05 09:57:52;;;;;;;0.80;0.80;;;;;;;26.14;45.98;95912.94;5135261;57;20144;-72
2021/07/05 10:03:08;;;;;;;2.05;0.80;;;;;;;27.32;47.84;95907.38;5151111;57;20129;-72
2021/07/05 10:08:14;;;;;;;0.70;0.70;;;;;;;26.87;43.68;95917.09;5150153;57;20140;-73
2021/07/05 10:13:20;;;;;;;0.82;0.82;;;;;;;27.89;43.83;95910.63;5157978;57;20147;-74
2021/07/05 10:18:23;;;;;;;1.02;1.02;;;;;;;28.60;41.28;95914.19;5140129;57;20224;-73
2021/07/05 10:23:26;;;;;;;0.88;0.80;;;;;;;27.98;44.14;95915.66;5140993;57;20125;-73
2021/07/05 10:28:28;;;;;;;2.15;0.80;;;;;;;27.61;42.45;95911.22;5141783;57;20130;-72
2021/07/05 10:33:31;;;;;;;2.55;0.80;;;;;;;27.49;43.80;95927.25;5138113;57;20117;-72
2021/07/05 10:38:42;;;;;;;0.85;0.80;;;;;;;26.20;49.62;95936.13;5137502;57;20157;-74
2021/07/05 10:43:53;;;;;;;0.80;0.80;;;;;;;26.72;44.84;95926.47;5138251;57;20117;-71
2021/07/05 10:48:56;;;;;;;0.77;0.77;;;;;;;26.01;46.19;95928.09;5129037;57;20117;-72
2021/07/05 10:53:58;;;;;;;1.20;0.85;;;;;;;25.42;46.29;95924.94;5138005;57;20131;-72
2021/07/05 10:59:13;;;;;;;1.38;0.80;;;;;;;24.53;48.18;95923.78;5143747;57;20125;-72
2021/07/05 11:04:28;;;;;;;0.80;0.80;;;;;;;24.64;48.30;95918.50;5141891;57;20118;-72
2021/07/05 11:09:31;;;;;;;0.98;0.90;;;;;;;24.52;49.04;95916.59;5139640;57;20182;-72
2021/07/05 11:14:38;;;;;;;0.68;0.68;;;;;;;23.83;53.61;95920.66;5140630;57;20734;-72
2021/07/05 11:19:47;;;;;;;0.85;0.85;;;;;;;23.84;51.14;95928.56;5143341;57;20685;-72
2021/07/05 11:24:52;;;;;;;;;;;;;;;25.00;48.60;95918.28;5141300;57;20126;-72
2021/07/05 11:30:10;;;;;;;1.00;1.00;;;;;;;25.85;45.79;95912.50;5140452;57;19986;-72
2021/07/05 11:35:35;;;;;;;2.72;0.70;;;;;;;27.53;46.03;95921.91;5140193;57;20645;-72
2021/07/05 11:40:58;;;;;;;2.65;0.90;;;;;;;27.33;42.25;95903.19;5140194;57;20130;-71
2021/07/05 11:46:00;;;;;;;1.42;0.90;;;;;;;27.34;44.06;95907.53;5139576;57;20240;-73
2021/07/05 11:51:13;;;;;;;1.42;1.00;;;;;;;26.91;48.02;95898.31;5147777;57;20622;-72
2021/07/05 11:56:28;;;;;;;3.67;0.80;;;;;;;27.24;47.04;95896.09;5138437;57;20582;-72
2021/07/05 12:01:32;;;;;;;0.75;0.75;;;;;;;27.96;44.46;95906.19;5139707;57;20121;-73
2021/07/05 12:06:35;;;;;;;2.05;0.75;;;;;;;26.75;45.44;95902.66;5144296;57;20200;-72
2021/07/05 12:11:44;;;;;;;0.70;0.70;;;;;;;25.28;49.35;95905.97;5140345;57;20139;-72
2021/07/05 12:16:54;;;;;;;1.05;0.93;;;;;;;25.97;49.38;95912.81;5138926;57;20168;-71
2021/07/05 12:22:03;;;;;;;2.90;0.70;;;;;;;24.70;47.71;95912.63;5145071;57;20146;-71
2021/07/05 12:27:12;;;;;;;0.77;0.77;;;;;;;25.33;48.92;95902.19;5149838;57;20125;-71
2021/07/05 12:32:21;;;;;;;0.70;0.70;;;;;;;24.91;48.30;95907.56;5142952;57;20133;-71
2021/07/05 12:37:45;;;;;;;0.85;0.80;;;;;;;24.74;47.10;95896.06;5145560;57;20754;-72
2021/07/05 12:43:00;;;;;;;1.77;0.82;;;;;;;24.88;49.18;95905.88;5150994;57;20125;-71
2021/07/05 12:48:16;;;;;;;2.05;0.85;;;;;;;24.98;48.41;95912.44;5159286;57;20125;-72
2021/07/05 12:53:29;;;;;;;0.73;0.70;;;;;;;24.53;52.13;95926.59;5138867;57;20122;-71
2021/07/05 12:58:44;;;;;;;254.88;52.85;;;;;;;24.47;52.03;95923.22;5138703;57;20569;-71
2021/07/05 13:03:56;;;;;;;2.05;1.00;;;;;;;24.35;47.53;95922.06;5138710;57;20128;-71
2021/07/05 13:09:10;;;;;;;0.50;0.50;;;;;;;24.42;48.45;95926.97;5145086;57;20126;-72
2021/07/05 13:14:17;;;;;;;0.80;0.80;;;;;;;24.52;49.49;95930.72;5138944;57;20146;-72
2021/07/05 13:19:20;;;;;;;2.67;0.70;;;;;;;24.10;49.21;95933.16;5142748;57;20142;-71
2021/07/05 13:24:29;;;;;;;0.82;0.80;;;;;;;24.07;51.62;95923.75;5130019;57;20689;-74
2021/07/05 13:29:34;;;;;;;0.60;0.60;;;;;;;23.61;51.81;95927.72;5148282;57;20152;-73
2021/07/05 13:34:43;;;;;;;4.13;1.00;;;;;;;24.01;51.60;95933.69;5159880;57;20134;-73
2021/07/05 13:39:45;;;;;;;1.15;0.70;;;;;;;24.33;49.31;95944.50;5170144;57;20169;-70
2021/07/05 13:44:50;;;;;;;0.82;0.65;;;;;;;24.29;51.30;95952.59;5163558;57;20134;-71
2021/07/05 13:50:13;;;;;;;0.70;0.70;;;;;;;24.80;50.21;95944.69;5159378;57;20679;-70
2021/07/05 13:55:36;;;;;;;0.90;0.90;;;;;;;25.12;47.99;95941.25;5159183;57;20217;-70
2021/07/05 14:00:40;;;;;;;1.02;0.80;;;;;;;24.77;48.94;95940.94;5152940;57;20120;-70
2021/07/05 14:05:43;;;;;;;0.75;0.75;;;;;;;25.50;51.29;95936.28;5158452;57;20125;-70
2021/07/05 14:10:49;;;;;;;0.80;0.80;;;;;;;25.58;49.28;95920.75;5158646;57;20160;-71
2021/07/05 14:15:53;;;;;;;1.40;0.82;;;;;;;25.22;48.33;95908.22;5158596;57;20124;-71
2021/07/05 14:20:56;;;;;;;0.88;0.88;;;;;;;25.12;49.29;95916.56;5159914;57;20130;-71
2021/07/05 14:25:59;;;;;;;0.70;0.70;;;;;;;24.65;50.15;95916.44;5158311;57;20125;-71
2021/07/05 14:31:03;;;;;;;0.95;0.95;;;;;;;24.46;49.17;95916.81;5158537;57;20170;-71
2021/07/05 14:36:05;;;;;;;0.80;0.80;;;;;;;24.38;52.05;95921.69;5158287;57;20125;-71
2021/07/05 14:41:20;;;;;;;0.70;0.70;;;;;;;24.19;48.19;95916.44;5158662;57;20268;-71
2021/07/05 14:46:28;;;;;;;0.82;0.60;;;;;;;24.30;50.56;95917.38;5161331;57;20116;-71
2021/07/05 14:51:30;;;;;;;0.63;0.60;;;;;;;24.63;49.91;95919.03;5161707;57;20125;-71
2021/07/05 14:56:33;;;;;;;0.85;0.85;;;;;;;24.34;48.97;95917.72;5161227;57;20602;-71
2021/07/05 15:01:35;;;;;;;0.60;0.60;;;;;;;24.04;50.32;95912.81;5161728;57;20115;-71
2021/07/05 15:06:39;;;;;;;0.60;0.60;;;;;;;23.78;50.65;95913.88;5160871;57;20687;-71
2021/07/05 15:11:48;;;;;;;0.65;0.65;;;;;;;23.69;54.54;95913.66;5152369;57;20133;-71
2021/07/05 15:16:53;;;;;;;2.72;0.60;;;;;;;23.78;53.22;95913.09;5160834;57;20226;-71
2021/07/05 15:21:55;;;;;;;0.70;0.70;;;;;;;23.51;51.29;95909.84;5155989;57;20130;-70
2021/07/05 15:26:58;;;;;;;0.60;0.60;;;;;;;24.14;51.67;95919.41;5156717;57;20108;-71
2021/07/05 15:32:02;;;;;;;0.60;0.60;;;;;;;24.51;47.95;95909.47;5151934;57;20122;-71
2021/07/05 15:37:05;;;;;;;1.10;0.60;;;;;;;24.57;50.81;95901.53;5149074;57;20669;-71
2021/07/05 15:42:07;;;;;;;3.13;0.70;;;;;;;24.38;47.65;95909.66;5151991;57;20125;-71
2021/07/05 15:47:12;;;;;;;1.17;0.63;;;;;;;24.24;49.48;95903.44;5159159;57;20196;-70
2021/07/05 15:52:14;;;;;;;0.77;0.77;;;;;;;23.93;50.29;95896.19;5152812;57;20151;-71
2021/07/05 15:57:17;;;;;;;0.70;0.70;;;;;;;24.29;51.44;95896.09;5159505;57;20126;-71
2021/07/05 16:02:35;;;;;;;2.50;0.70;;;;;;;24.47;49.96;95889.31;5158732;57;20112;-72
2021/07/05 16:07:38;;;;;;;0.40;0.40;;;;;;;24.14;48.96;95894.78;5152766;57;20121;-70
2021/07/05 16:12:42;;;;;;;1.08;0.73;;;;;;;24.09;49.95;95883.66;5150929;57;20139;-70
2021/07/05 16:17:45;;;;;;;0.73;0.73;;;;;;;23.85;49.68;95884.91;5150320;57;20130;-70
2021/07/05 16:22:48;;;;;;;0.50;0.50;;;;;;;24.11;49.70;95887.41;5156564;57;20129;-70
2021/07/05 16:27:50;;;;;;;2.70;0.68;;;;;;;24.73;50.30;95883.25;5159234;57;20129;-70
2021/07/05 16:32:52;;;;;;;0.70;0.50;;;;;;;24.69;50.34;95882.91;5148118;57;20838;-70
2021/07/05 16:37:55;;;;;;;0.70;0.70;;;;;;;24.60;48.74;95883.47;5146834;57;20143;-70
2021/07/05 16:42:58;;;;;;;0.60;0.60;;;;;;;24.44;50.33;95884.78;5159739;57;20116;-70
2021/07/05 16:48:03;;;;;;;0.60;0.60;;;;;;;24.71;49.60;95892.31;5156567;57;20195;-70
2021/07/05 16:53:06;;;;;;;0.70;0.70;;;;;;;24.89;49.76;95888.34;5148062;57;20152;-70
2021/07/05 16:58:08;;;;;;;1.10;0.80;;;;;;;25.13;49.88;95886.19;5146638;57;20600;-70
2021/07/05 17:03:17;;;;;;;0.63;0.63;;;;;;;24.88;49.00;95881.19;5159789;57;20134;-70
2021/07/05 17:08:19;;;;;;;;;;;;;;;24.90;47.11;95880.59;5159391;57;20220;-70
2021/07/05 17:13:37;;;;;;;0.60;0.60;;;;;;;24.79;49.67;95881.00;5150525;57;19985;-70
2021/07/05 17:18:39;;;;;;;0.68;0.68;;;;;;;25.13;47.21;95874.88;5159067;57;20121;-69
2021/07/05 17:23:42;;;;;;;1.20;0.90;;;;;;;25.35;47.11;95874.81;5149045;57;20112;-69
2021/07/05 17:28:44;;;;;;;0.50;0.50;;;;;;;24.73;49.74;95877.59;5153320;57;20908;-69
2021/07/05 17:33:46;;;;;;;1.02;0.90;;;;;;;24.17;48.65;95871.06;5156547;57;20182;-69
2021/07/05 17:38:49;;;;;;;0.60;0.60;;;;;;;24.17;49.74;95888.00;5158611;57;20116;-69
2021/07/05 17:43:52;;;;;;;0.80;0.80;;;;;;;24.85;48.44;95887.22;5158741;57;20638;-69
2021/07/05 17:48:56;;;;;;;0.73;0.73;;;;;;;25.15;47.08;95880.75;5159016;57;20125;-69
2021/07/05 17:53:59;;;;;;;0.80;0.80;;;;;;;24.77;49.04;95878.00;5151025;57;20129;-68
2021/07/05 17:59:02;;;;;;;0.77;0.77;;;;;;;24.23;49.31;95891.38;5158071;57;20190;-68
2021/07/05 18:04:04;;;;;;;0.55;0.55;;;;;;;23.97;50.03;95893.78;5158642;57;20129;-69
2021/07/05 18:09:07;;;;;;;0.80;0.80;;;;;;;23.79;51.16;95889.97;5158215;57;20129;-68
2021/07/05 18:14:09;;;;;;;0.70;0.70;;;;;;;23.46;53.28;95896.66;5157810;57;20133;-69
2021/07/05 18:19:11;;;;;;;0.70;0.70;;;;;;;22.91;55.62;95898.25;5160234;57;20147;-67
2021/07/05 18:24:14;;;;;;;0.85;0.70;;;;;;;22.49;56.04;95898.31;5161418;57;20128;-67
2021/07/05 18:29:18;;;;;;;0.70;0.70;;;;;;;22.21;57.11;95895.44;5153023;57;20116;-70
2021/07/05 18:34:21;;;;;;;0.80;0.80;;;;;;;21.80;58.86;95889.81;5161515;57;20151;-69
2021/07/05 18:39:30;;;;;;;0.95;0.95;;;;;;;21.21;61.82;95899.84;5161175;57;20124;-70
2021/07/05 18:44:37;;;;;;;0.80;0.80;;;;;;;20.89;61.62;95894.34;5160953;57;20130;-70
2021/07/05 18:49:41;;;;;;;0.80;0.80;;;;;;;20.67;63.05;95900.34;5182291;57;20583;-69
2021/07/05 18:54:44;;;;;;;0.70;0.70;;;;;;;20.51;65.21;95905.00;5168398;57;20129;-68
2021/07/05 18:59:48;;;;;;;0.85;0.85;;;;;;;20.29;68.16;95907.44;5161046;57;20590;-69
2021/07/05 19:04:50;;;;;;;1.73;0.82;;;;;;;20.27;70.19;95924.06;5155199;57;20233;-69
2021/07/05 19:09:52;;;;;;;0.77;0.77;;;;;;;20.00;72.47;95909.97;5160474;57;20135;-70
2021/07/05 19:14:55;;;;;;;1.65;0.70;;;;;;;19.82;72.49;95913.56;5156640;57;20134;-70
2021/07/05 19:19:57;;;;;;;0.80;0.80;;;;;;;19.58;72.92;95913.69;5150805;57;20273;-70
2021/07/05 19:25:00;;;;;;;1.10;0.90;;;;;;;19.43;73.79;95916.16;5152561;57;20178;-69
2021/07/05 19:30:03;;;;;;;2.42;0.90;;;;;;;19.08;75.20;95924.78;5156642;57;20139;-70
2021/07/05 19:35:07;;;;;;;0.63;0.63;;;;;;;18.97;74.48;95924.91;5160239;57;20590;-70
2021/07/05 19:40:10;;;;;;;3.08;0.90;;;;;;;18.85;75.15;95929.88;5152182;57;20116;-70
2021/07/05 19:45:18;;;;;;;0.70;0.70;;;;;;;19.14;73.75;95945.06;5160327;57;20116;-70
2021/07/05 19:50:21;;;;;;;1.00;1.00;;;;;;;18.91;76.22;95949.41;5152119;57;20121;-70
2021/07/05 19:55:23;;;;;;;2.90;0.70;;;;;;;18.62;78.02;95951.00;5159767;57;20152;-70
2021/07/05 20:00:26;;;;;;;1.95;0.80;;;;;;;18.26;79.11;95938.34;5159998;57;20116;-70
2021/07/05 20:05:28;;;;;;;2.33;0.85;;;;;;;18.12;79.48;95940.25;5157853;57;20603;-69
2021/07/05 20:10:31;;;;;;;0.82;0.82;;;;;;;18.05;79.99;95954.06;5159670;57;20703;-69
2021/07/05 20:15:33;;;;;;;4.18;0.95;;;;;;;18.08;79.05;95939.00;5159681;57;20125;-70
2021/07/05 20:20:41;;;;;;;1.00;1.00;;;;;;;18.16;79.66;95943.50;5159492;57;20129;-70
2021/07/05 20:25:44;;;;;;;2.92;1.02;;;;;;;17.89;80.07;95939.66;5159468;57;20167;-69
2021/07/05 20:30:46;;;;;;;2.58;1.10;;;;;;;17.69;80.88;95937.28;5158964;57;20281;-70
2021/07/05 20:35:49;;;;;;;1.75;1.00;;;;;;;17.64;81.23;95946.44;5159463;57;20151;-70
2021/07/05 20:40:51;;;;;;;1.77;1.00;;;;;;;17.53;81.83;95940.16;5158859;57;20874;-70
2021/07/05 20:45:55;;;;;;;1.45;0.95;;;;;;;17.66;80.95;95957.13;5158549;57;20129;-69
2021/07/05 20:50:59;;;;;;;0.98;0.90;;;;;;;17.50;81.21;95949.56;5155492;57;20164;-70
2021/07/05 20:56:01;;;;;;;1.17;0.95;;;;;;;17.35;82.43;95947.09;5158032;57;20190;-69
2021/07/05 21:01:04;;;;;;;1.52;0.98;;;;;;;17.24;82.81;95949.97;5156900;57;20204;-70
2021/07/05 21:06:07;;;;;;;0.90;0.90;;;;;;;17.08;83.19;95948.78;5157559;57;20939;-70
2021/07/05 21:11:09;;;;;;;0.93;0.93;;;;;;;16.94;83.51;95944.25;5151636;57;20120;-69
2021/07/05 21:16:13;;;;;;;1.10;0.90;;;;;;;17.05;83.59;95944.19;5159220;57;20134;-70
2021/07/05 21:21:15;;;;;;;3.00;0.88;;;;;;;17.07;83.56;95954.88;5158985;57;20129;-69
2021/07/05 21:26:23;;;;;;;1.10;0.98;;;;;;;16.88;83.41;95937.94;5149450;57;20121;-69
2021/07/05 21:31:28;;;;;;;1.00;1.00;;;;;;;16.73;84.71;95948.66;5153201;57;20112;-70
2021/07/05 21:36:31;;;;;;;1.02;1.00;;;;;;;16.69;85.18;95950.94;5154654;57;20245;-69
2021/07/05 21:41:34;;;;;;;0.75;0.75;;;;;;;16.63;85.45;95950.19;5156689;57;20733;-70
2021/07/05 21:46:36;;;;;;;1.05;0.90;;;;;;;16.61;84.85;95949.19;5158013;57;20125;-69
2021/07/05 21:51:40;;;;;;;2.15;1.02;;;;;;;16.50;85.59;95958.31;5157869;57;20125;-70
2021/07/05 21:56:42;;;;;;;1.00;1.00;;;;;;;16.45;85.76;95945.13;5158541;57;20156;-70
2021/07/05 22:01:44;;;;;;;1.30;1.20;;;;;;;16.28;86.07;95944.41;5158547;57;20215;-70
2021/07/05 22:06:47;;;;;;;1.10;1.10;;;;;;;16.23;86.67;95948.72;5157542;57;20692;-70
2021/07/05 22:11:49;;;;;;;3.63;0.98;;;;;;;16.20;86.33;95940.59;5158626;57;20112;-69
2021/07/05 22:16:52;;;;;;;2.70;1.17;;;;;;;16.16;86.62;95938.09;5158547;57;20152;-70
2021/07/05 22:21:55;;;;;;;1.13;1.00;;;;;;;16.18;86.36;95946.69;5158459;57;20653;-70
2021/07/05 22:26:57;;;;;;;1.10;1.00;;;;;;;16.22;86.00;95926.91;5157567;57;20111;-69
2021/07/05 22:31:59;;;;;;;3.10;1.13;;;;;;;16.10;87.00;95933.78;5158621;57;20657;-70
2021/07/05 22:37:04;;;;;;;1.25;0.90;;;;;;;16.03;86.85;95923.91;5157338;57;20142;-69
2021/07/05 22:42:06;;;;;;;1.45;0.98;;;;;;;16.02;87.30;95932.75;5158159;57;20125;-69
2021/07/05 22:47:09;;;;;;;0.93;0.93;;;;;;;15.99;87.28;95923.38;5169333;57;20115;-69
2021/07/05 22:52:11;;;;;;;1.27;1.20;;;;;;;15.94;87.47;95926.97;5179064;57;20159;-69
2021/07/05 22:57:33;;;;;;;1.10;1.10;;;;;;;15.97;87.59;95914.78;5177787;57;20133;-69
2021/07/05 23:02:41;;;;;;;2.30;1.05;;;;;;;16.01;87.09;95914.53;5178057;57;20115;-70
2021/07/05 23:07:45;;;;;;;1.02;1.02;;;;;;;15.93;87.47;95905.91;5159793;57;20125;-70
2021/07/05 23:12:49;;;;;;;1.67;1.20;;;;;;;15.88;87.88;95917.06;5161153;57;20144;-69
2021/07/05 23:17:53;;;;;;;1.00;1.00;;;;;;;15.82;87.84;95910.72;5160776;57;20581;-70
2021/07/05 23:22:56;;;;;;;1.30;1.20;;;;;;;15.79;87.98;95916.06;5161335;57;20116;-70
2021/07/05 23:28:00;;;;;;;1.85;1.20;;;;;;;15.76;87.66;95917.06;5151923;57;20138;-70
2021/07/05 23:33:03;;;;;;;2.40;0.80;;;;;;;15.70;88.01;95924.66;5161246;57;20142;-70
2021/07/05 23:38:05;;;;;;;1.00;1.00;;;;;;;15.66;88.01;95917.81;5161127;57;20143;-69
2021/07/05 23:43:08;;;;;;;4.35;1.05;;;;;;;15.55;88.82;95917.81;5152285;57;20590;-70
2021/07/05 23:48:10;;;;;;;0.98;0.98;;;;;;;15.55;88.77;95918.56;5162090;57;20138;-70
2021/07/05 23:53:13;;;;;;;0.98;0.98;;;;;;;15.56;88.24;95920.09;5180327;57;20137;-70
2021/07/05 23:58:15;;;;;;;1.92;1.02;;;;;;;15.51;88.50;95912.47;5170974;57;20125;-69
